createdAt,value
2022-11-22T00:00:49.267Z,5.48
2022-11-22T00:03:18.741Z,5.48
2022-11-22T00:05:46.351Z,5.49
2022-11-22T00:08:14.092Z,5.55
2022-11-22T00:10:41.864Z,5.61
2022-11-22T00:13:09.816Z,5.61
2022-11-22T00:15:37.557Z,5.62
2022-11-22T00:18:05.289Z,5.72
2022-11-22T00:20:34.698Z,5.58
2022-11-22T00:23:02.611Z,5.61
2022-11-22T00:25:30.200Z,5.69
2022-11-22T00:27:57.763Z,5.70
2022-11-22T00:30:25.392Z,5.93
2022-11-22T00:32:53.085Z,5.99
2022-11-22T00:35:20.747Z,5.92
2022-11-22T00:37:49.754Z,5.98
2022-11-22T00:40:17.673Z,5.88
2022-11-22T00:42:45.319Z,5.89
2022-11-22T00:45:13.006Z,5.97
2022-11-22T00:47:40.555Z,5.99
2022-11-22T00:50:08.834Z,5.86
2022-11-22T00:52:36.427Z,5.87
2022-11-22T00:55:06.678Z,5.98
2022-11-22T00:57:34.321Z,5.96
2022-11-22T01:00:01.998Z,6.02
2022-11-22T01:02:29.567Z,6.00
2022-11-22T01:04:57.192Z,6.04
2022-11-22T01:07:24.790Z,6.18
2022-11-22T01:09:52.464Z,6.16
2022-11-22T01:12:21.377Z,6.13
2022-11-22T01:14:48.962Z,6.06
2022-11-22T01:17:16.543Z,6.02
2022-11-22T01:19:44.107Z,6.07
2022-11-22T01:22:11.676Z,6.23
2022-11-22T01:24:39.320Z,6.24
2022-11-22T01:27:06.857Z,6.21
2022-11-22T01:29:35.729Z,6.27
2022-11-22T01:32:03.274Z,6.27
2022-11-22T01:34:30.859Z,6.22
2022-11-22T01:36:58.389Z,6.15
2022-11-22T01:39:26.096Z,6.26
2022-11-22T01:41:53.647Z,6.41
2022-11-22T01:44:24.118Z,6.31
2022-11-22T01:46:55.999Z,6.32
2022-11-22T01:49:30.304Z,6.37
2022-11-22T01:52:03.060Z,6.32
2022-11-22T01:54:34.848Z,6.30
2022-11-22T01:57:06.328Z,6.39
2022-11-22T01:59:36.580Z,6.43
2022-11-22T02:02:07.349Z,6.45
2022-11-22T02:04:37.892Z,6.59
2022-11-22T02:07:13.540Z,6.53
2022-11-22T02:09:43.305Z,6.55
2022-11-22T02:12:12.967Z,6.56
2022-11-22T02:14:41.521Z,6.59
2022-11-22T02:17:10.886Z,6.25
2022-11-22T02:19:44.409Z,6.31
2022-11-22T02:22:26.239Z,6.53
2022-11-22T02:24:58.372Z,6.45
2022-11-22T02:27:27.347Z,6.32
2022-11-22T02:29:54.985Z,6.28
2022-11-22T02:32:22.714Z,6.45
2022-11-22T02:34:51.765Z,6.43
2022-11-22T02:37:23.634Z,6.50
2022-11-22T02:39:56.969Z,6.58
2022-11-22T02:42:27.039Z,6.75
2022-11-22T02:44:54.669Z,6.49
2022-11-22T02:47:22.286Z,6.53
2022-11-22T02:49:49.859Z,6.61
2022-11-22T02:52:18.259Z,6.77
2022-11-22T02:54:45.841Z,6.83
2022-11-22T02:57:13.751Z,6.92
2022-11-22T02:59:42.683Z,6.92
2022-11-22T03:02:10.245Z,7.01
2022-11-22T03:04:37.887Z,6.93
2022-11-22T03:07:05.546Z,6.95
2022-11-22T03:09:33.535Z,7.03
2022-11-22T03:12:01.247Z,7.06
2022-11-22T03:14:28.945Z,7.10
2022-11-22T03:16:57.825Z,7.09
2022-11-22T03:19:25.405Z,7.17
2022-11-22T03:21:53.246Z,7.17
2022-11-22T03:24:20.937Z,6.97
2022-11-22T03:26:49.777Z,7.13
2022-11-22T03:29:17.651Z,7.18
2022-11-22T03:31:45.232Z,7.22
2022-11-22T03:34:15.034Z,7.23
2022-11-22T03:36:42.731Z,7.25
2022-11-22T03:39:10.434Z,7.32
2022-11-22T03:41:38.260Z,7.27
2022-11-22T03:44:07.216Z,7.37
2022-11-22T03:46:34.827Z,7.34
2022-11-22T03:49:02.429Z,7.41
2022-11-22T03:51:31.402Z,7.38
2022-11-22T03:53:59.223Z,7.20
2022-11-22T03:56:26.927Z,7.18
2022-11-22T03:58:54.535Z,7.26
2022-11-22T04:01:22.251Z,7.17
2022-11-22T04:03:50.123Z,7.23
2022-11-22T04:06:17.663Z,7.19
2022-11-22T04:08:46.591Z,7.30
2022-11-22T04:11:14.381Z,7.47
2022-11-22T04:13:59.521Z,7.48
2022-11-22T04:16:27.223Z,7.57
2022-11-22T04:18:54.775Z,7.47
2022-11-22T04:21:36.711Z,7.43
2022-11-22T04:24:24.879Z,7.46
2022-11-22T04:26:52.779Z,7.56
2022-11-22T04:29:21.004Z,7.51
2022-11-22T04:32:08.025Z,7.40
2022-11-22T04:34:36.272Z,7.33
2022-11-22T04:37:04.398Z,7.24
2022-11-22T04:39:33.612Z,7.32
2022-11-22T04:42:19.060Z,7.22
2022-11-22T04:44:50.596Z,7.21
2022-11-22T04:47:33.614Z,7.19
2022-11-22T04:50:01.355Z,7.25
2022-11-22T04:52:46.557Z,7.19
2022-11-22T04:55:15.606Z,7.28
2022-11-22T04:57:43.217Z,7.45
2022-11-22T05:00:11.790Z,7.40
2022-11-22T05:02:39.319Z,7.41
2022-11-22T05:05:10.031Z,7.43
2022-11-22T05:07:37.672Z,7.34
2022-11-22T05:10:06.157Z,7.31
2022-11-22T05:12:35.162Z,7.24
2022-11-22T05:15:02.731Z,7.34
2022-11-22T05:17:30.310Z,7.28
2022-11-22T05:19:57.885Z,7.27
2022-11-22T05:22:41.871Z,7.08
2022-11-22T05:25:10.425Z,7.13
2022-11-22T05:27:39.844Z,7.08
2022-11-22T05:30:08.601Z,7.13
2022-11-22T05:32:36.521Z,7.18
2022-11-22T05:35:04.400Z,7.29
2022-11-22T05:37:32.019Z,7.22
2022-11-22T05:39:59.636Z,7.22
2022-11-22T05:42:27.161Z,7.09
2022-11-22T05:44:56.465Z,7.15
2022-11-22T05:47:24.101Z,7.10
2022-11-22T05:49:51.799Z,7.06
2022-11-22T05:52:19.449Z,7.08
2022-11-22T05:54:47.106Z,7.08
2022-11-22T05:57:14.670Z,7.01
2022-11-22T05:59:44.627Z,6.85
2022-11-22T06:02:13.662Z,6.82
2022-11-22T06:04:41.342Z,6.66
2022-11-22T06:07:10.416Z,6.59
2022-11-22T06:09:38.518Z,6.46
2022-11-22T06:12:06.488Z,6.53
2022-11-22T06:14:36.328Z,6.51
2022-11-22T06:17:07.646Z,6.45
2022-11-22T06:19:37.029Z,6.42
2022-11-22T06:22:04.589Z,6.29
2022-11-22T06:24:32.204Z,6.46
2022-11-22T06:26:59.900Z,6.48
2022-11-22T06:29:27.729Z,6.54
2022-11-22T06:32:03.164Z,6.45
2022-11-22T06:34:31.589Z,6.32
2022-11-22T06:37:00.770Z,6.24
2022-11-22T06:39:28.521Z,6.27
2022-11-22T06:41:56.376Z,6.20
2022-11-22T06:44:23.981Z,6.19
2022-11-22T06:46:51.746Z,6.21
2022-11-22T06:49:19.799Z,6.16
2022-11-22T06:51:54.927Z,6.25
2022-11-22T06:54:24.024Z,6.23
2022-11-22T06:56:51.939Z,6.29
2022-11-22T06:59:20.271Z,6.29
2022-11-22T07:01:48.026Z,6.21
2022-11-22T07:04:15.842Z,6.21
2022-11-22T07:06:44.131Z,6.21
2022-11-22T07:09:12.600Z,6.13
2022-11-22T07:11:41.884Z,6.05
2022-11-22T07:14:14.485Z,6.16
2022-11-22T07:16:43.385Z,6.14
2022-11-22T07:19:11.016Z,6.18
2022-11-22T07:21:38.700Z,6.17
2022-11-22T07:24:08.112Z,6.05
2022-11-22T07:26:35.760Z,6.08
2022-11-22T07:29:04.887Z,6.11
2022-11-22T07:31:32.482Z,6.21
2022-11-22T07:34:00.613Z,6.44
2022-11-22T07:36:29.412Z,6.55
2022-11-22T07:38:57.483Z,6.53
2022-11-22T07:41:25.855Z,6.55
2022-11-22T07:43:53.904Z,6.51
2022-11-22T07:46:26.135Z,6.41
2022-11-22T07:48:56.567Z,6.51
2022-11-22T07:51:24.715Z,6.47
2022-11-22T07:53:52.690Z,6.59
2022-11-22T07:56:22.507Z,6.73
2022-11-22T07:58:50.116Z,6.77
2022-11-22T08:01:20.900Z,6.76
2022-11-22T08:03:53.172Z,6.68
2022-11-22T08:06:20.788Z,6.59
2022-11-22T08:08:48.427Z,6.68
2022-11-22T08:11:16.029Z,6.75
2022-11-22T08:13:44.659Z,6.96
2022-11-22T08:16:16.988Z,6.99
2022-11-22T08:18:48.670Z,7.00
2022-11-22T08:21:19.557Z,7.16
2022-11-22T08:23:48.865Z,7.30
2022-11-22T08:26:18.734Z,7.34
2022-11-22T08:28:46.483Z,7.50
2022-11-22T08:31:16.450Z,7.65
2022-11-22T08:33:44.113Z,7.86
2022-11-22T08:36:12.025Z,7.81
2022-11-22T08:38:40.963Z,7.83
2022-11-22T08:41:08.666Z,7.81
2022-11-22T08:43:36.280Z,7.84
2022-11-22T08:46:04.589Z,7.85
2022-11-22T08:48:33.937Z,7.96
2022-11-22T08:51:03.466Z,8.14
2022-11-22T08:53:33.480Z,8.16
2022-11-22T08:56:03.300Z,8.19
2022-11-22T08:58:31.589Z,8.19
2022-11-22T09:01:04.861Z,8.10
2022-11-22T09:03:32.498Z,8.04
2022-11-22T09:09:02.912Z,7.89
2022-11-22T09:11:39.216Z,7.94
2022-11-22T09:14:07.057Z,7.88
2022-11-22T09:16:34.701Z,7.99
2022-11-22T09:19:02.269Z,7.89
2022-11-22T09:21:29.923Z,8.13
2022-11-22T09:23:57.602Z,8.30
2022-11-22T09:26:25.620Z,8.21
2022-11-22T09:28:57.758Z,8.40
2022-11-22T09:31:25.745Z,8.35
2022-11-22T09:33:53.752Z,8.50
2022-11-22T09:36:23.687Z,8.47
2022-11-22T09:38:52.757Z,8.72
2022-11-22T09:42:12.758Z,8.72
2022-11-22T09:45:04.702Z,8.79
2022-11-22T09:47:39.790Z,8.66
2022-11-22T09:50:15.056Z,8.68
2022-11-22T09:52:49.736Z,8.75
2022-11-22T09:55:24.897Z,8.88
2022-11-22T09:58:03.265Z,8.82
2022-11-22T10:00:32.490Z,8.87
2022-11-22T10:03:06.697Z,9.03
2022-11-22T10:05:49.945Z,8.86
2022-11-22T10:08:29.197Z,8.82
2022-11-22T10:10:59.539Z,8.84
2022-11-22T10:13:34.460Z,8.79
2022-11-22T10:16:11.540Z,8.74
2022-11-22T10:18:44.391Z,8.67
2022-11-22T10:21:14.107Z,8.77
2022-11-22T10:23:42.990Z,8.84
2022-11-22T10:26:22.996Z,8.79
2022-11-22T10:29:01.114Z,8.95
2022-11-22T10:31:40.098Z,8.86
2022-11-22T10:34:17.811Z,8.84
2022-11-22T10:36:50.469Z,8.91
2022-11-22T10:39:35.015Z,9.01
2022-11-22T10:42:47.145Z,8.76
2022-11-22T10:45:19.883Z,8.79
2022-11-22T10:47:59.934Z,8.72
2022-11-22T10:50:41.522Z,8.96
2022-11-22T10:53:17.491Z,9.20
2022-11-22T10:55:56.830Z,9.31
2022-11-22T10:58:37.612Z,9.05
2022-11-22T11:01:14.592Z,8.98
2022-11-22T11:03:45.207Z,8.92
2022-11-22T11:06:29.461Z,8.83
2022-11-22T11:10:02.791Z,9.01
2022-11-22T11:11:53.756Z,9.21
2022-11-22T11:14:29.950Z,9.26
2022-11-22T11:16:58.708Z,9.12
2022-11-22T11:19:31.402Z,9.02
2022-11-22T11:22:03.590Z,9.13
2022-11-22T11:24:32.350Z,9.21
2022-11-22T11:27:01.495Z,9.49
2022-11-22T11:29:42.560Z,9.80
2022-11-22T11:32:15.333Z,9.61
2022-11-22T11:34:57.132Z,9.81
2022-11-22T11:37:27.691Z,9.85
2022-11-22T11:39:55.242Z,9.82
2022-11-22T11:42:31.206Z,9.78
2022-11-22T11:45:27.856Z,9.77
2022-11-22T11:47:55.688Z,10.03
2022-11-22T11:50:27.680Z,9.80
2022-11-22T11:52:57.793Z,9.68
2022-11-22T11:55:26.417Z,9.71
2022-11-22T11:57:54.759Z,9.52
2022-11-22T12:00:27.182Z,9.46
2022-11-22T12:03:00.342Z,9.33
2022-11-22T12:05:32.991Z,9.51
2022-11-22T12:08:02.157Z,9.33
2022-11-22T12:10:34.544Z,9.22
2022-11-22T12:13:07.959Z,9.23
2022-11-22T12:15:44.799Z,9.16
2022-11-22T12:18:28.922Z,9.22
2022-11-22T12:21:09.560Z,9.24
2022-11-22T12:23:54.044Z,9.53
2022-11-22T12:26:35.279Z,9.81
2022-11-22T12:29:06.133Z,9.64
2022-11-22T12:31:45.141Z,9.69
2022-11-22T12:34:18.335Z,9.61
2022-11-22T12:36:59.430Z,9.53
2022-11-22T12:39:31.605Z,9.57
2022-11-22T12:42:04.199Z,9.71
2022-11-22T12:44:38.638Z,9.59
2022-11-22T12:47:10.459Z,9.56
2022-11-22T12:52:35.764Z,9.41
2022-11-22T12:55:09.905Z,9.48
2022-11-22T12:57:44.505Z,9.54
2022-11-22T13:00:18.301Z,9.66
2022-11-22T13:02:59.222Z,9.60
2022-11-22T13:05:31.228Z,9.71
2022-11-22T13:08:14.982Z,9.60
2022-11-22T13:10:48.901Z,9.61
2022-11-22T13:13:23.777Z,9.55
2022-11-22T13:15:55.336Z,9.66
2022-11-22T13:18:26.844Z,9.49
2022-11-22T13:21:06.624Z,9.46
2022-11-22T13:23:55.244Z,9.43
2022-11-22T13:26:33.623Z,9.51
2022-11-22T13:29:05.286Z,9.52
2022-11-22T13:31:37.955Z,9.50
2022-11-22T13:34:26.360Z,9.49
2022-11-22T13:36:57.878Z,9.52
2022-11-22T13:39:31.251Z,9.44
2022-11-22T13:42:06.154Z,9.38
2022-11-22T13:44:52.204Z,9.35
2022-11-22T13:47:37.890Z,9.40
2022-11-22T13:50:59.459Z,9.35
2022-11-22T13:53:31.729Z,9.22
2022-11-22T13:56:39.805Z,9.31
2022-11-22T13:59:16.281Z,9.32
2022-11-22T14:01:59.813Z,9.27
2022-11-22T14:04:36.257Z,9.24
2022-11-22T14:07:07.024Z,9.14
2022-11-22T14:09:39.951Z,9.09
2022-11-22T14:12:26.163Z,8.95
2022-11-22T14:15:12.699Z,8.80
2022-11-22T14:17:48.428Z,8.82
2022-11-22T14:20:30.969Z,8.77
2022-11-22T14:23:04.223Z,8.76
2022-11-22T14:25:47.855Z,8.83
2022-11-22T14:28:37.723Z,8.85
2022-11-22T14:31:14.801Z,8.77
2022-11-22T14:34:20.166Z,8.83
2022-11-22T14:37:27.622Z,8.70
2022-11-22T14:40:16.835Z,8.75
2022-11-22T14:42:57.122Z,8.75
2022-11-22T14:45:36.790Z,8.79
2022-11-22T14:48:13.072Z,8.76
2022-11-22T14:50:45.620Z,8.69
2022-11-22T14:53:22.653Z,8.73
2022-11-22T14:55:53.354Z,8.68
2022-11-22T14:58:27.467Z,8.57
2022-11-22T15:01:26.351Z,8.60
2022-11-22T15:09:10.827Z,8.61
2022-11-22T15:09:13.540Z,8.48
2022-11-22T15:10:31.265Z,8.45
2022-11-22T15:13:23.382Z,8.46
2022-11-22T15:59:11.898Z,7.87
2022-11-22T16:01:44.446Z,7.90
2022-11-22T16:04:25.017Z,7.98
2022-11-22T16:06:53.799Z,7.98
2022-11-22T16:09:28.368Z,8.10
2022-11-22T16:12:01.651Z,8.11
2022-11-22T16:14:57.102Z,8.08
2022-11-22T16:17:29.427Z,8.15
2022-11-22T16:20:27.035Z,8.03
2022-11-22T16:23:26.229Z,8.09
2022-11-22T16:26:00.785Z,8.10
2022-11-22T16:28:35.068Z,8.03
2022-11-22T16:31:17.238Z,8.09
2022-11-22T16:33:45.435Z,8.01
2022-11-22T16:36:14.682Z,8.01
2022-11-22T16:38:42.801Z,7.97
2022-11-22T16:41:19.013Z,8.12
2022-11-22T16:43:49.270Z,8.08
2022-11-22T16:46:16.898Z,8.12
2022-11-22T16:48:46.027Z,8.11
2022-11-22T16:51:15.898Z,8.16
2022-11-22T16:53:45.601Z,8.09
2022-11-22T16:56:19.469Z,8.09
2022-11-22T16:58:47.459Z,8.04
2022-11-22T17:01:17.062Z,8.08
2022-11-22T17:03:47.822Z,8.07
2022-11-22T17:06:18.941Z,8.17
2022-11-22T17:08:46.990Z,8.09
2022-11-22T17:11:18.601Z,8.06
2022-11-22T17:13:49.052Z,8.09
2022-11-22T17:16:18.689Z,8.03
2022-11-22T17:18:49.779Z,8.02
2022-11-22T17:21:24.765Z,7.93
2022-11-22T17:23:53.036Z,7.87
2022-11-22T17:26:22.283Z,7.92
2022-11-22T17:28:57.293Z,7.88
2022-11-22T17:31:25.089Z,7.91
2022-11-22T17:33:53.955Z,7.91
2022-11-22T17:36:26.458Z,7.95
2022-11-22T17:38:54.131Z,7.90
2022-11-22T17:41:23.969Z,7.84
2022-11-22T17:43:52.699Z,7.92
2022-11-22T17:46:20.601Z,7.93
2022-11-22T17:48:52.127Z,7.87
2022-11-22T17:51:19.974Z,8.05
2022-11-22T17:53:47.859Z,7.94
2022-11-22T17:56:17.460Z,7.96
2022-11-22T17:58:46.838Z,8.00
2022-11-22T18:01:16.012Z,7.94
2022-11-22T18:03:45.120Z,8.01
2022-11-22T18:06:13.996Z,8.04
2022-11-22T18:08:46.711Z,7.98
2022-11-22T18:11:15.545Z,7.97
2022-11-22T18:13:44.226Z,8.05
2022-11-22T18:16:15.524Z,8.05
2022-11-22T18:18:59.520Z,7.94
2022-11-22T18:21:29.011Z,7.94
2022-11-22T18:23:57.851Z,7.97
2022-11-22T18:26:41.685Z,7.83
2022-11-22T18:32:04.816Z,7.80
2022-11-22T18:34:33.530Z,7.81
2022-11-22T18:37:03.492Z,7.73
2022-11-22T18:39:34.260Z,7.76
2022-11-22T18:42:02.498Z,7.81
2022-11-22T18:44:30.176Z,7.89
2022-11-22T18:46:57.896Z,7.87
2022-11-22T18:49:27.080Z,7.88
2022-11-22T18:51:55.506Z,7.81
2022-11-22T18:54:23.247Z,7.78
2022-11-22T18:56:50.921Z,7.72
2022-11-22T18:59:18.865Z,7.83
2022-11-22T19:01:47.117Z,7.83
2022-11-22T19:04:17.056Z,7.92
2022-11-22T19:06:46.247Z,7.93
2022-11-22T19:09:13.990Z,7.90
2022-11-22T19:11:41.977Z,7.88
2022-11-22T19:14:09.785Z,7.89
2022-11-22T19:16:37.774Z,7.84
2022-11-22T19:19:05.448Z,7.83
2022-11-22T19:21:33.778Z,7.86
2022-11-22T19:24:02.973Z,7.78
2022-11-22T19:26:32.193Z,7.72
2022-11-22T19:29:02.305Z,7.95
2022-11-22T19:31:31.174Z,7.91
2022-11-22T19:33:59.106Z,7.85
2022-11-22T19:36:34.185Z,7.71
2022-11-22T19:39:05.256Z,7.71
2022-11-22T19:41:33.448Z,7.53
2022-11-22T19:44:01.472Z,7.49
2022-11-22T19:46:30.018Z,7.49
2022-11-22T19:48:59.343Z,7.41
2022-11-22T19:51:28.939Z,7.35
2022-11-22T19:53:59.505Z,7.30
2022-11-22T19:56:31.480Z,7.25
2022-11-22T19:59:00.632Z,7.20
2022-11-22T20:01:31.035Z,7.07
2022-11-22T20:04:01.934Z,7.08
2022-11-22T20:06:33.271Z,7.08
2022-11-22T20:09:02.051Z,6.97
2022-11-22T20:11:31.124Z,6.95
2022-11-22T20:13:59.277Z,6.87
2022-11-22T20:16:32.779Z,6.78
2022-11-22T20:19:01.776Z,6.86
2022-11-22T20:21:31.719Z,6.97
2022-11-22T20:24:02.444Z,6.90
2022-11-22T20:26:33.124Z,6.87
2022-11-22T20:29:02.499Z,6.84
2022-11-22T20:31:32.824Z,6.89
2022-11-22T20:34:01.880Z,6.88
2022-11-22T20:36:33.050Z,7.01
2022-11-22T20:39:04.152Z,6.94
2022-11-22T20:41:37.626Z,6.86
2022-11-22T20:44:05.496Z,6.78
2022-11-22T20:46:37.622Z,6.75
2022-11-22T20:49:05.401Z,6.74
2022-11-22T20:51:35.817Z,6.69
2022-11-22T20:54:03.944Z,6.68
2022-11-22T20:56:32.722Z,6.71
2022-11-22T20:59:02.015Z,6.76
2022-11-22T21:01:31.510Z,6.66
2022-11-22T21:03:59.266Z,6.59
2022-11-22T21:06:27.686Z,6.60
2022-11-22T21:08:55.807Z,6.62
2022-11-22T21:11:25.486Z,6.63
2022-11-22T21:13:54.059Z,6.63
2022-11-22T21:16:25.144Z,6.64
2022-11-22T21:18:53.736Z,6.72
2022-11-22T21:21:23.849Z,6.79
2022-11-22T21:23:53.096Z,6.83
2022-11-22T21:26:21.714Z,6.78
2022-11-22T21:28:50.097Z,6.86
2022-11-22T21:31:18.213Z,6.81
2022-11-22T21:33:49.737Z,6.85
2022-11-22T21:36:17.654Z,6.88
2022-11-22T21:38:45.772Z,6.88
2022-11-22T21:44:04.691Z,6.81
2022-11-22T21:46:32.324Z,6.77
2022-11-22T21:49:01.515Z,6.80
2022-11-22T21:51:29.377Z,6.76
2022-11-22T21:53:58.379Z,6.71
2022-11-22T21:56:26.647Z,6.79
2022-11-22T21:58:54.402Z,6.72
2022-11-22T22:01:22.567Z,6.77
2022-11-22T22:03:50.439Z,6.81
2022-11-22T22:06:19.911Z,6.79
2022-11-22T22:08:47.692Z,6.77
2022-11-22T22:11:15.728Z,6.75
2022-11-22T22:13:43.551Z,6.72
2022-11-22T22:16:15.521Z,6.73
2022-11-22T22:18:43.810Z,6.86
2022-11-22T22:21:13.481Z,6.83
2022-11-22T22:23:43.001Z,6.79
2022-11-22T22:26:13.321Z,6.78
2022-11-22T22:28:41.738Z,6.78
2022-11-22T22:31:11.557Z,6.79
2022-11-22T22:33:40.937Z,6.94
2022-11-22T22:36:10.761Z,7.03
2022-11-22T22:38:39.569Z,7.12
2022-11-22T22:41:11.532Z,7.15
2022-11-22T22:43:40.689Z,7.16
2022-11-22T22:46:11.622Z,7.17
2022-11-22T22:48:40.030Z,7.27
2022-11-22T22:51:08.993Z,7.23
2022-11-22T22:53:36.759Z,7.19
2022-11-22T22:56:05.315Z,7.25
2022-11-22T22:58:34.821Z,7.35
2022-11-22T23:01:06.978Z,7.43
2022-11-22T23:03:34.648Z,7.44
2022-11-22T23:06:05.701Z,7.52
2022-11-22T23:08:33.309Z,7.57
2022-11-22T23:11:06.388Z,7.55
2022-11-22T23:13:36.913Z,7.56
2022-11-22T23:16:11.124Z,7.54
2022-11-22T23:18:42.283Z,7.54
2022-11-22T23:21:12.232Z,7.52
2022-11-22T23:23:39.787Z,7.53
2022-11-22T23:26:10.257Z,7.50
2022-11-22T23:28:39.605Z,7.51
2022-11-22T23:31:08.549Z,7.68
2022-11-22T23:33:36.633Z,7.63
2022-11-22T23:36:05.651Z,7.56
2022-11-22T23:38:33.850Z,7.53
2022-11-22T23:41:02.022Z,7.53
2022-11-22T23:43:30.041Z,7.60
2022-11-22T23:45:59.614Z,7.63
2022-11-22T23:48:27.847Z,7.67
2022-11-22T23:50:55.732Z,7.67
2022-11-22T23:53:23.360Z,7.70
2022-11-22T23:55:50.949Z,7.70
2022-11-22T23:58:18.518Z,7.77
